Time;durP1;ratioP1;P1;durP2;ratioP2;P2;SDS_P1;SDS_P2;PMS_P1;PMS_P2;Temp;Humidity;BMP_temperature;BMP_pressure;BME280_temperature;BME280_humidity;BME280_pressure;Samples;Min_cycle;Max_cycle;Signal;HPM_P1;HPM_P2
2023/01/04 00:03:52;;;;;;;4.35;2.58;;;;;;;;;;8220485;28;20514;-71
2023/01/04 00:07:53;;;;;;;5.97;2.50;;;;;;;;;;8214931;28;20878;-72
2023/01/04 00:11:53;;;;;;;3.28;2.40;;;;;;;;;;8229563;28;20050;-71
2023/01/04 00:15:53;;;;;;;5.07;2.42;;;;;;;;;;8218905;28;20049;-72
2023/01/04 00:19:53;;;;;;;4.75;2.70;;;;;;;;;;8216638;28;20058;-71
2023/01/04 00:23:54;;;;;;;4.93;2.92;;;;;;;;;;8213030;28;20076;-71
2023/01/04 00:27:54;;;;;;;5.20;3.17;;;;;;;;;;8227282;28;20023;-72
2023/01/04 00:31:55;;;;;;;4.00;3.00;;;;;;;;;;8214547;28;20124;-72
2023/01/04 00:35:55;;;;;;;3.40;2.50;;;;;;;;;;8214213;28;20033;-71
2023/01/04 00:39:55;;;;;;;4.38;2.90;;;;;;;;;;8213054;28;20293;-72
2023/01/04 00:43:55;;;;;;;6.03;3.33;;;;;;;;;;8213407;28;20085;-72
2023/01/04 00:47:55;;;;;;;4.57;3.10;;;;;;;;;;8212466;28;20506;-71
2023/01/04 00:51:56;;;;;;;4.18;3.17;;;;;;;;;;8218289;28;20221;-72
2023/01/04 00:56:00;;;;;;;5.00;3.15;;;;;;;;;;8212555;28;20033;-71
2023/01/04 01:00:00;;;;;;;4.07;2.67;;;;;;;;;;8211306;28;20034;-71
2023/01/04 01:04:02;;;;;;;5.35;3.20;;;;;;;;;;8212509;28;20527;-71
2023/01/04 01:08:23;;;;;;;5.57;2.70;;;;;;;;;;8211085;28;20030;-71
2023/01/04 01:12:22;;;;;;;3.13;2.60;;;;;;;;;;8213034;28;20937;-72
2023/01/04 01:16:23;;;;;;;4.82;2.78;;;;;;;;;;8214737;28;20049;-72
2023/01/04 01:20:23;;;;;;;4.50;2.90;;;;;;;;;;8213974;28;20026;-72
2023/01/04 01:24:23;;;;;;;4.18;2.95;;;;;;;;;;8211199;28;20081;-71
2023/01/04 01:28:23;;;;;;;7.57;3.58;;;;;;;;;;8210541;28;20030;-71
2023/01/04 01:32:23;;;;;;;4.55;2.72;;;;;;;;;;8212963;28;20506;-72
2023/01/04 01:36:25;;;;;;;2.67;2.42;;;;;;;;;;8213656;28;20030;-71
2023/01/04 01:40:25;;;;;;;3.42;2.55;;;;;;;;;;8214042;28;20030;-72
2023/01/04 01:44:40;;;;;;;2.50;2.30;;;;;;;;;;8214030;28;20022;-72
2023/01/04 01:48:40;;;;;;;4.75;2.70;;;;;;;;;;8213209;28;20711;-71
2023/01/04 01:52:41;;;;;;;2.97;2.00;;;;;;;;;;8209806;28;20399;-72
2023/01/04 01:56:43;;;;;;;3.25;2.42;;;;;;;;;;8212425;28;20133;-71
2023/01/04 02:00:43;;;;;;;3.20;2.28;;;;;;;;;;8211943;28;20533;-72
2023/01/04 02:04:45;;;;;;;4.30;3.40;;;;;;;;;;8212307;28;20034;-71
2023/01/04 02:08:45;;;;;;;6.28;2.88;;;;;;;;;;8213026;28;20036;-72
2023/01/04 02:12:46;;;;;;;3.58;2.60;;;;;;;;;;8210384;28;20027;-71
2023/01/04 02:17:05;;;;;;;4.90;3.40;;;;;;;;;;8211893;28;20031;-70
2023/01/04 02:21:28;;;;;;;4.60;2.90;;;;;;;;;;8212548;28;20026;-71
2023/01/04 02:25:34;;;;;;;4.00;2.67;;;;;;;;;;8209847;28;20509;-72
2023/01/04 02:29:50;;;;;;;4.07;2.33;;;;;;;;;;8217764;28;20061;-70
2023/01/04 02:33:54;;;;;;;3.40;2.58;;;;;;;;;;8209130;28;20042;-71
2023/01/04 02:37:57;;;;;;;4.47;2.80;;;;;;;;;;8216379;28;20038;-72
2023/01/04 02:42:16;;;;;;;4.82;2.40;;;;;;;;;;8228555;28;20033;-71
2023/01/04 02:46:20;;;;;;;4.43;2.70;;;;;;;;;;8232580;28;20077;-72
2023/01/04 02:50:32;;;;;;;6.25;2.60;;;;;;;;;;8218621;28;20644;-71
2023/01/04 02:54:33;;;;;;;3.80;2.70;;;;;;;;;;8217719;28;20030;-71
2023/01/04 02:58:39;;;;;;;4.82;2.47;;;;;;;;;;8216329;28;20034;-71
2023/01/04 03:07:10;;;;;;;3.67;2.45;;;;;;;;;;8216120;28;20061;-72
2023/01/04 03:15:33;;;;;;;3.47;2.38;;;;;;;;;;8218079;28;20034;-72
2023/01/04 03:19:50;;;;;;;4.72;2.40;;;;;;;;;;8219491;28;20940;-71
2023/01/04 03:37:15;;;;;;;5.88;2.70;;;;;;;;;;8219426;28;20179;-71
2023/01/04 03:50:18;;;;;;;7.88;2.72;;;;;;;;;;8217207;28;20542;-71
2023/01/04 03:54:21;;;;;;;4.60;2.40;;;;;;;;;;8215476;28;20037;-72
2023/01/04 03:58:21;;;;;;;4.78;2.35;;;;;;;;;;8215914;28;20142;-71
2023/01/04 04:02:27;;;;;;;6.23;2.80;;;;;;;;;;8213513;28;20070;-70
2023/01/04 04:10:47;;;;;;;5.10;2.50;;;;;;;;;;8214784;28;20156;-72
2023/01/04 04:14:47;;;;;;;6.57;2.50;;;;;;;;;;8223063;28;20049;-72
2023/01/04 04:18:47;;;;;;;3.92;2.65;;;;;;;;;;8212805;28;20030;-71
2023/01/04 04:22:47;;;;;;;3.70;2.30;;;;;;;;;;8218397;28;20117;-72
2023/01/04 04:26:47;;;;;;;4.63;2.42;;;;;;;;;;8213544;28;20027;-72
2023/01/04 04:30:48;;;;;;;6.53;2.78;;;;;;;;;;8211591;28;20109;-70
2023/01/04 04:34:48;;;;;;;6.93;2.40;;;;;;;;;;8216127;28;20081;-71
2023/01/04 04:38:48;;;;;;;4.30;2.13;;;;;;;;;;8214499;28;20022;-70
2023/01/04 04:42:48;;;;;;;3.28;2.67;;;;;;;;;;8213148;28;20026;-72
2023/01/04 04:46:49;;;;;;;4.28;2.25;;;;;;;;;;8209686;28;20069;-70
2023/01/04 04:50:49;;;;;;;5.65;2.90;;;;;;;;;;8210347;28;20052;-71
2023/01/04 04:54:49;;;;;;;7.28;2.72;;;;;;;;;;8209044;28;20031;-71
2023/01/04 04:58:49;;;;;;;2.80;2.45;;;;;;;;;;8205774;28;20030;-69
2023/01/04 05:02:49;;;;;;;6.03;3.08;;;;;;;;;;8200074;28;20438;-71
2023/01/04 05:06:51;;;;;;;3.47;2.35;;;;;;;;;;8198816;28;20030;-71
2023/01/04 05:10:52;;;;;;;4.38;2.47;;;;;;;;;;8200484;28;20029;-71
2023/01/04 05:14:52;;;;;;;3.47;2.60;;;;;;;;;;8199735;28;20022;-70
2023/01/04 05:18:52;;;;;;;6.22;2.67;;;;;;;;;;8203730;28;20038;-71
2023/01/04 05:22:52;;;;;;;4.47;2.70;;;;;;;;;;8213276;28;20026;-71
2023/01/04 05:26:52;;;;;;;5.55;2.72;;;;;;;;;;8208850;28;20510;-71
2023/01/04 05:30:54;;;;;;;4.18;2.88;;;;;;;;;;8207964;28;20030;-71
2023/01/04 05:34:54;;;;;;;8.20;2.88;;;;;;;;;;8215731;28;20026;-70
2023/01/04 05:38:54;;;;;;;5.13;2.53;;;;;;;;;;8214587;28;20064;-71
2023/01/04 05:42:55;;;;;;;4.15;2.92;;;;;;;;;;8210539;28;20029;-71
2023/01/04 05:46:55;;;;;;;5.97;2.60;;;;;;;;;;8210405;28;20048;-71
2023/01/04 05:50:55;;;;;;;5.05;2.95;;;;;;;;;;8209202;28;20034;-72
2023/01/04 05:54:55;;;;;;;3.65;2.28;;;;;;;;;;8203988;28;20054;-71
2023/01/04 05:58:55;;;;;;;4.85;2.55;;;;;;;;;;8213515;28;20034;-71
2023/01/04 06:02:56;;;;;;;6.30;2.28;;;;;;;;;;8213983;28;20653;-73
2023/01/04 06:06:56;;;;;;;2.85;2.22;;;;;;;;;;8208256;28;20070;-71
2023/01/04 06:10:56;;;;;;;2.75;1.90;;;;;;;;;;8211098;28;20236;-72
2023/01/04 06:14:56;;;;;;;5.93;1.92;;;;;;;;;;8219820;28;20863;-71
2023/01/04 06:18:56;;;;;;;7.07;1.92;;;;;;;;;;8214080;28;20034;-71
2023/01/04 06:22:56;;;;;;;3.72;1.80;;;;;;;;;;8212825;28;20026;-72
2023/01/04 06:26:57;;;;;;;1.90;1.60;;;;;;;;;;8203340;28;20085;-72
2023/01/04 06:30:57;;;;;;;5.32;1.88;;;;;;;;;;8202191;28;20853;-71
2023/01/04 06:34:57;;;;;;;2.15;1.58;;;;;;;;;;8201887;28;20058;-72
2023/01/04 06:38:57;;;;;;;1.52;1.20;;;;;;;;;;8206221;28;20023;-70
2023/01/04 06:42:58;;;;;;;2.50;1.35;;;;;;;;;;8202897;28;20081;-71
2023/01/04 06:46:58;;;;;;;2.40;1.10;;;;;;;;;;8207320;28;20035;-72
2023/01/04 06:50:58;;;;;;;1.50;1.15;;;;;;;;;;8209999;28;20026;-71
2023/01/04 06:54:58;;;;;;;1.87;1.30;;;;;;;;;;8213349;28;20080;-70
2023/01/04 06:58:58;;;;;;;1.30;1.20;;;;;;;;;;8216837;28;21027;-71
2023/01/04 07:02:59;;;;;;;1.83;1.45;;;;;;;;;;8218287;28;20038;-71
2023/01/04 07:06:59;;;;;;;2.75;1.67;;;;;;;;;;8216330;28;20074;-71
2023/01/04 07:10:59;;;;;;;2.03;1.30;;;;;;;;;;8215123;28;20481;-71
2023/01/04 07:14:59;;;;;;;2.13;1.50;;;;;;;;;;8216864;28;20086;-70
2023/01/04 07:18:59;;;;;;;1.85;1.27;;;;;;;;;;8215885;28;20890;-71
2023/01/04 07:23:00;;;;;;;2.58;1.35;;;;;;;;;;8214243;28;20566;-71
2023/01/04 07:27:00;;;;;;;1.38;1.27;;;;;;;;;;8210924;28;20100;-71
2023/01/04 07:31:04;;;;;;;1.88;1.35;;;;;;;;;;8214363;28;20031;-70
2023/01/04 07:35:05;;;;;;;2.83;1.38;;;;;;;;;;8206860;28;20034;-71
2023/01/04 07:39:05;;;;;;;1.30;1.23;;;;;;;;;;8206981;28;20850;-72
2023/01/04 07:43:05;;;;;;;1.52;1.25;;;;;;;;;;8201021;28;21094;-72
2023/01/04 07:47:06;;;;;;;3.38;1.25;;;;;;;;;;8203311;28;20043;-72
2023/01/04 07:51:06;;;;;;;2.42;1.52;;;;;;;;;;8206113;28;20109;-72
2023/01/04 07:55:06;;;;;;;3.33;1.55;;;;;;;;;;8207929;28;20030;-72
2023/01/04 07:59:08;;;;;;;1.50;1.30;;;;;;;;;;8213885;28;20081;-72
2023/01/04 08:03:08;;;;;;;1.70;1.40;;;;;;;;;;8207007;28;20031;-71
2023/01/04 08:07:08;;;;;;;2.22;1.60;;;;;;;;;;8209361;28;20109;-72
2023/01/04 08:11:13;;;;;;;2.65;1.30;;;;;;;;;;8214160;28;20104;-71
2023/01/04 08:15:14;;;;;;;1.67;1.15;;;;;;;;;;8213979;28;20026;-72
2023/01/04 08:19:19;;;;;;;2.72;1.60;;;;;;;;;;8210563;28;20030;-72
2023/01/04 08:23:19;;;;;;;1.45;1.17;;;;;;;;;;8208383;28;20776;-72
2023/01/04 08:27:19;;;;;;;2.80;1.42;;;;;;;;;;8206519;28;20092;-72
2023/01/04 08:31:21;;;;;;;3.00;1.55;;;;;;;;;;8200782;28;20048;-72
2023/01/04 08:35:21;;;;;;;1.98;1.13;;;;;;;;;;8199477;28;20126;-71
2023/01/04 08:39:21;;;;;;;1.55;1.45;;;;;;;;;;8199403;28;20141;-72
2023/01/04 08:43:21;;;;;;;2.33;1.30;;;;;;;;;;8200808;28;20057;-71
2023/01/04 08:47:21;;;;;;;1.33;1.08;;;;;;;;;;8200839;28;20042;-72
2023/01/04 08:51:22;;;;;;;1.30;1.20;;;;;;;;;;8206253;28;20069;-72
2023/01/04 08:55:22;;;;;;;2.45;1.50;;;;;;;;;;8202859;28;20042;-71
2023/01/04 08:59:22;;;;;;;2.08;1.40;;;;;;;;;;8196316;28;20516;-72
2023/01/04 09:03:22;;;;;;;1.48;1.33;;;;;;;;;;8200537;28;20107;-72
2023/01/04 09:07:22;;;;;;;3.17;1.45;;;;;;;;;;8195369;28;20031;-71
2023/01/04 09:11:23;;;;;;;2.40;1.50;;;;;;;;;;8204487;28;20045;-71
2023/01/04 09:15:23;;;;;;;3.20;1.85;;;;;;;;;;8205631;28;20039;-71
2023/01/04 09:19:23;;;;;;;3.22;1.65;;;;;;;;;;8205779;28;20041;-72
2023/01/04 09:23:24;;;;;;;2.28;1.73;;;;;;;;;;8205402;28;20601;-72
2023/01/04 09:27:24;;;;;;;3.30;1.70;;;;;;;;;;8207624;28;20028;-72
2023/01/04 09:31:25;;;;;;;2.67;1.67;;;;;;;;;;8205965;28;21027;-72
2023/01/04 09:35:25;;;;;;;1.65;1.52;;;;;;;;;;8202344;28;20049;-72
2023/01/04 09:39:29;;;;;;;2.90;1.80;;;;;;;;;;8205733;28;20034;-72
2023/01/04 09:43:32;;;;;;;4.17;1.90;;;;;;;;;;8206507;28;20092;-72
2023/01/04 09:47:49;;;;;;;3.90;1.83;;;;;;;;;;8218264;28;20637;-72
2023/01/04 09:51:58;;;;;;;3.45;1.90;;;;;;;;;;8206301;28;20491;-71
2023/01/04 09:56:03;;;;;;;3.10;2.15;;;;;;;;;;8208867;28;20022;-71
2023/01/04 10:00:23;;;;;;;3.78;2.05;;;;;;;;;;8220462;28;20078;-71
2023/01/04 10:04:27;;;;;;;2.20;1.98;;;;;;;;;;8207089;28;20049;-71
2023/01/04 10:08:29;;;;;;;3.70;1.85;;;;;;;;;;8204124;28;20757;-71
2023/01/04 10:12:33;;;;;;;4.10;1.98;;;;;;;;;;8198564;28;20114;-72
2023/01/04 10:16:45;;;;;;;3.35;1.95;;;;;;;;;;8197720;28;20035;-72
2023/01/04 10:20:53;;;;;;;3.42;1.80;;;;;;;;;;8194582;28;20491;-72
2023/01/04 10:24:59;;;;;;;3.90;2.22;;;;;;;;;;8197615;28;20018;-72
2023/01/04 10:28:59;;;;;;;2.80;2.45;;;;;;;;;;8202482;28;20027;-72
2023/01/04 10:33:06;;;;;;;5.80;2.40;;;;;;;;;;8203622;28;20042;-72
2023/01/04 10:37:12;;;;;;;2.15;2.00;;;;;;;;;;8203478;28;20747;-72
2023/01/04 10:41:20;;;;;;;3.78;2.00;;;;;;;;;;8202205;28;20026;-71
2023/01/04 10:45:42;;;;;;;2.25;1.88;;;;;;;;;;8199803;28;20033;-74
2023/01/04 10:49:45;;;;;;;3.95;2.17;;;;;;;;;;8201749;28;20027;-72
2023/01/04 10:53:50;;;;;;;4.93;1.87;;;;;;;;;;8201430;28;20168;-72
2023/01/04 10:57:53;;;;;;;1.83;1.50;;;;;;;;;;8200950;28;20034;-72
2023/01/04 11:01:59;;;;;;;2.00;1.70;;;;;;;;;;8197645;28;20052;-71
2023/01/04 11:06:20;;;;;;;2.80;1.70;;;;;;;;;;8194638;28;20027;-72
2023/01/04 11:10:23;;;;;;;2.70;1.80;;;;;;;;;;8199765;28;20232;-73
2023/01/04 11:14:24;;;;;;;1.73;1.50;;;;;;;;;;8201085;28;20023;-72
2023/01/04 11:18:24;;;;;;;3.78;1.52;;;;;;;;;;8214591;28;20039;-72
2023/01/04 11:22:28;;;;;;;1.65;1.30;;;;;;;;;;8212872;28;20026;-71
2023/01/04 11:26:33;;;;;;;1.90;1.50;;;;;;;;;;8218007;28;20022;-72
2023/01/04 11:30:50;;;;;;;1.77;1.50;;;;;;;;;;8210578;28;20066;-72
2023/01/04 11:34:52;;;;;;;1.75;1.63;;;;;;;;;;8210224;28;20034;-72
2023/01/04 11:38:54;;;;;;;1.80;1.58;;;;;;;;;;8209136;28;20025;-72
2023/01/04 11:43:09;;;;;;;2.63;1.70;;;;;;;;;;8206245;28;20054;-73
2023/01/04 11:47:20;;;;;;;3.47;1.67;;;;;;;;;;8206268;28;20026;-72
2023/01/04 11:51:27;;;;;;;4.43;2.00;;;;;;;;;;8208966;28;20030;-72
2023/01/04 11:55:28;;;;;;;3.85;2.15;;;;;;;;;;8203476;28;20033;-71
2023/01/04 11:59:29;;;;;;;3.15;1.70;;;;;;;;;;8202717;28;20587;-72
2023/01/04 12:03:37;;;;;;;2.17;1.98;;;;;;;;;;8203558;28;20185;-73
2023/01/04 12:07:37;;;;;;;4.05;2.20;;;;;;;;;;8198531;28;20290;-72
2023/01/04 12:11:40;;;;;;;2.75;1.92;;;;;;;;;;8199314;28;20145;-72
2023/01/04 12:16:06;;;;;;;2.10;2.00;;;;;;;;;;8205888;28;20042;-71
2023/01/04 12:20:12;;;;;;;3.28;1.98;;;;;;;;;;8217606;28;20053;-73
2023/01/04 12:24:23;;;;;;;4.35;2.40;;;;;;;;;;8207793;28;20030;-73
2023/01/04 12:28:27;;;;;;;5.28;2.20;;;;;;;;;;8210337;28;20033;-72
2023/01/04 12:32:28;;;;;;;2.55;2.22;;;;;;;;;;8210314;28;20050;-71
2023/01/04 12:36:37;;;;;;;3.15;2.38;;;;;;;;;;8213776;28;20037;-73
2023/01/04 12:40:43;;;;;;;2.13;1.92;;;;;;;;;;8207022;28;20991;-73
2023/01/04 12:44:46;;;;;;;4.07;2.33;;;;;;;;;;8207694;28;20286;-73
2023/01/04 12:49:05;;;;;;;3.88;2.17;;;;;;;;;;8210383;28;20148;-73
2023/01/04 12:53:09;;;;;;;2.72;2.17;;;;;;;;;;8210507;28;20037;-73
2023/01/04 12:57:09;;;;;;;;;;;;;;;;;;8204159;28;20481;-71
2023/01/04 13:01:19;;;;;;;2.13;1.92;;;;;;;;;;8202765;28;19922;-73
2023/01/04 13:05:19;;;;;;;2.97;1.70;;;;;;;;;;8202921;28;20022;-73
2023/01/04 13:09:21;;;;;;;2.85;2.10;;;;;;;;;;8201189;28;20454;-72
2023/01/04 13:13:26;;;;;;;2.58;1.75;;;;;;;;;;8202482;28;20136;-72
2023/01/04 13:17:26;;;;;;;2.10;1.65;;;;;;;;;;8201706;28;20042;-73
2023/01/04 13:21:32;;;;;;;3.95;1.90;;;;;;;;;;8204636;28;20399;-72
2023/01/04 13:25:34;;;;;;;2.67;1.58;;;;;;;;;;8209066;28;20498;-72
2023/01/04 13:29:35;;;;;;;3.67;1.73;;;;;;;;;;8208213;28;20060;-72
2023/01/04 13:33:35;;;;;;;1.88;1.33;;;;;;;;;;8204420;28;20038;-72
2023/01/04 13:37:43;;;;;;;2.10;1.35;;;;;;;;;;8207236;28;20324;-73
2023/01/04 13:41:45;;;;;;;1.58;1.30;;;;;;;;;;8204697;28;20750;-72
2023/01/04 13:46:00;;;;;;;2.95;1.45;;;;;;;;;;8203679;28;20035;-73
2023/01/04 13:50:01;;;;;;;1.40;1.30;;;;;;;;;;8214513;28;20026;-72
2023/01/04 13:54:02;;;;;;;3.60;1.30;;;;;;;;;;8202302;28;20112;-72
2023/01/04 13:58:15;;;;;;;1.23;1.00;;;;;;;;;;8198114;28;20022;-72
2023/01/04 14:02:19;;;;;;;1.95;1.10;;;;;;;;;;8199950;28;20038;-72
2023/01/04 14:06:19;;;;;;;;;;;;;;;;;;8198924;28;20133;-72
2023/01/04 14:10:20;;;;;;;1.75;0.98;;;;;;;;;;8199165;28;20032;-72
2023/01/04 14:14:35;;;;;;;1.27;1.05;;;;;;;;;;8202540;28;21101;-72
2023/01/04 14:18:35;;;;;;;0.80;0.80;;;;;;;;;;8202430;28;20111;-73
2023/01/04 14:22:35;;;;;;;1.50;0.90;;;;;;;;;;8205045;28;20027;-72
2023/01/04 14:26:37;;;;;;;0.80;0.80;;;;;;;;;;8204487;28;20026;-73
2023/01/04 14:30:37;;;;;;;1.88;1.00;;;;;;;;;;8208687;28;20084;-72
2023/01/04 14:34:37;;;;;;;1.10;0.98;;;;;;;;;;8217569;28;20751;-72
2023/01/04 14:38:39;;;;;;;1.13;0.95;;;;;;;;;;8217976;28;20019;-72
2023/01/04 14:42:40;;;;;;;0.90;0.90;;;;;;;;;;8217544;28;20137;-72
2023/01/04 14:46:42;;;;;;;0.70;0.70;;;;;;;;;;8217440;28;20065;-71
2023/01/04 14:50:42;;;;;;;0.80;0.80;;;;;;;;;;8218376;28;20022;-72
2023/01/04 14:54:42;;;;;;;0.82;0.80;;;;;;;;;;8217274;28;20904;-73
2023/01/04 14:58:43;;;;;;;1.13;0.80;;;;;;;;;;8220024;28;20117;-72
2023/01/04 15:02:48;;;;;;;0.85;0.85;;;;;;;;;;8218059;28;20859;-72
2023/01/04 15:06:53;;;;;;;0.60;0.60;;;;;;;;;;8220013;28;20141;-72
2023/01/04 15:10:53;;;;;;;0.95;0.70;;;;;;;;;;8218950;28;20042;-73
2023/01/04 15:14:53;;;;;;;0.70;0.70;;;;;;;;;;8220217;28;20032;-74
2023/01/04 15:18:53;;;;;;;0.80;0.80;;;;;;;;;;8216286;28;20049;-72
2023/01/04 15:22:53;;;;;;;0.82;0.70;;;;;;;;;;8215841;28;20601;-73
2023/01/04 15:26:54;;;;;;;0.73;0.73;;;;;;;;;;8221310;28;20131;-71
2023/01/04 15:30:54;;;;;;;0.63;0.63;;;;;;;;;;8216241;28;20045;-71
2023/01/04 15:34:54;;;;;;;1.05;0.70;;;;;;;;;;8216194;28;20330;-73
2023/01/04 15:38:54;;;;;;;2.30;0.77;;;;;;;;;;8215094;28;21206;-73
2023/01/04 15:42:57;;;;;;;0.60;0.60;;;;;;;;;;8229802;28;20073;-72
2023/01/04 15:46:58;;;;;;;0.68;0.60;;;;;;;;;;8215919;28;20062;-71
2023/01/04 15:51:01;;;;;;;0.65;0.60;;;;;;;;;;8220025;28;20030;-73
2023/01/04 15:55:01;;;;;;;1.00;0.90;;;;;;;;;;8216062;28;20057;-73
2023/01/04 15:59:01;;;;;;;0.75;0.75;;;;;;;;;;8216405;28;20022;-72
2023/01/04 16:03:01;;;;;;;0.70;0.70;;;;;;;;;;8216080;28;20827;-73
2023/01/04 16:07:01;;;;;;;0.65;0.65;;;;;;;;;;8216939;28;20098;-73
2023/01/04 16:11:09;;;;;;;0.70;0.70;;;;;;;;;;8214649;28;20034;-72
2023/01/04 16:15:09;;;;;;;0.60;0.60;;;;;;;;;;8214835;28;20038;-72
2023/01/04 16:19:09;;;;;;;0.60;0.60;;;;;;;;;;8215618;28;20022;-72
2023/01/04 16:23:09;;;;;;;0.75;0.60;;;;;;;;;;8213650;28;20038;-72
2023/01/04 16:27:10;;;;;;;0.70;0.70;;;;;;;;;;8214827;28;20527;-72
2023/01/04 16:31:10;;;;;;;1.35;0.65;;;;;;;;;;8213209;28;20074;-72
2023/01/04 16:35:10;;;;;;;0.50;0.50;;;;;;;;;;8215648;28;20050;-72
2023/01/04 16:39:10;;;;;;;0.55;0.55;;;;;;;;;;8215544;28;20026;-72
2023/01/04 16:43:10;;;;;;;0.85;0.60;;;;;;;;;;8217384;28;20026;-72
2023/01/04 16:47:11;;;;;;;0.50;0.50;;;;;;;;;;8216812;28;20805;-72
2023/01/04 16:51:11;;;;;;;0.68;0.68;;;;;;;;;;8220037;28;20365;-73
2023/01/04 16:55:11;;;;;;;1.90;1.20;;;;;;;;;;8215476;28;20462;-72
2023/01/04 16:59:14;;;;;;;0.60;0.60;;;;;;;;;;8221650;28;20097;-71
2023/01/04 17:03:15;;;;;;;0.55;0.55;;;;;;;;;;8217951;28;20039;-71
2023/01/04 17:07:15;;;;;;;0.50;0.50;;;;;;;;;;8189586;28;20166;-73
2023/01/04 17:11:16;;;;;;;1.07;0.50;;;;;;;;;;8176637;28;20113;-73
2023/01/04 17:15:17;;;;;;;0.50;0.50;;;;;;;;;;8181024;28;20646;-74
2023/01/04 17:19:17;;;;;;;0.50;0.50;;;;;;;;;;8192021;28;20046;-75
2023/01/04 17:23:18;;;;;;;0.50;0.50;;;;;;;;;;8197341;28;20089;-73
2023/01/04 17:27:19;;;;;;;0.50;0.50;;;;;;;;;;8213365;28;20049;-75
2023/01/04 17:31:20;;;;;;;0.68;0.63;;;;;;;;;;8232116;28;20042;-73
2023/01/04 17:35:20;;;;;;;0.52;0.52;;;;;;;;;;8225630;28;20087;-75
2023/01/04 17:39:21;;;;;;;0.50;0.50;;;;;;;;;;8194579;28;20144;-74
2023/01/04 17:43:21;;;;;;;0.50;0.50;;;;;;;;;;8191859;28;20522;-75
2023/01/04 17:47:21;;;;;;;0.52;0.52;;;;;;;;;;8194823;28;20451;-75
2023/01/04 17:51:22;;;;;;;0.50;0.50;;;;;;;;;;8192485;28;20037;-75
2023/01/04 17:55:23;;;;;;;0.50;0.50;;;;;;;;;;8196737;28;20033;-75
2023/01/04 17:59:23;;;;;;;0.55;0.55;;;;;;;;;;8217214;28;21609;-74
2023/01/04 18:03:23;;;;;;;0.40;0.40;;;;;;;;;;8212405;28;20049;-74
2023/01/04 18:07:24;;;;;;;0.60;0.60;;;;;;;;;;8211001;28;20053;-72
2023/01/04 18:11:24;;;;;;;0.70;0.70;;;;;;;;;;8215939;28;20030;-73
2023/01/04 18:15:24;;;;;;;0.50;0.50;;;;;;;;;;8210122;28;20039;-73
2023/01/04 18:19:25;;;;;;;0.60;0.60;;;;;;;;;;8200374;28;20049;-74
2023/01/04 18:23:27;;;;;;;0.70;0.70;;;;;;;;;;8188166;28;20027;-74
2023/01/04 18:27:27;;;;;;;0.73;0.73;;;;;;;;;;8199297;28;20033;-76
2023/01/04 18:31:28;;;;;;;0.55;0.55;;;;;;;;;;8170589;28;20058;-72
2023/01/04 18:35:28;;;;;;;0.60;0.60;;;;;;;;;;8176146;28;20101;-72
2023/01/04 18:39:28;;;;;;;0.50;0.50;;;;;;;;;;8214467;28;20120;-71
2023/01/04 18:43:28;;;;;;;0.70;0.70;;;;;;;;;;8211403;28;20152;-72
2023/01/04 18:47:28;;;;;;;0.50;0.50;;;;;;;;;;8207794;28;20843;-73
2023/01/04 18:51:29;;;;;;;0.60;0.60;;;;;;;;;;8212487;28;20129;-72
2023/01/04 18:55:29;;;;;;;0.65;0.65;;;;;;;;;;8206172;28;20030;-72
2023/01/04 18:59:29;;;;;;;0.60;0.60;;;;;;;;;;8225981;28;20034;-73
2023/01/04 19:03:30;;;;;;;0.68;0.68;;;;;;;;;;8186348;28;20054;-71
2023/01/04 19:07:30;;;;;;;1.10;1.10;;;;;;;;;;8169531;28;20050;-73
2023/01/04 19:11:30;;;;;;;0.80;0.63;;;;;;;;;;8176183;28;20104;-71
2023/01/04 19:15:30;;;;;;;0.50;0.50;;;;;;;;;;8181873;28;20438;-72
2023/01/04 19:19:30;;;;;;;0.50;0.50;;;;;;;;;;8205526;28;20046;-72
2023/01/04 19:23:31;;;;;;;0.50;0.50;;;;;;;;;;8219638;28;20380;-73
2023/01/04 19:27:31;;;;;;;0.70;0.60;;;;;;;;;;8219130;28;20019;-73
2023/01/04 19:31:33;;;;;;;0.60;0.60;;;;;;;;;;8215026;28;20077;-72
2023/01/04 19:35:33;;;;;;;0.50;0.50;;;;;;;;;;8220155;28;20141;-73
2023/01/04 19:39:33;;;;;;;0.60;0.60;;;;;;;;;;8179966;28;20070;-72
2023/01/04 19:43:34;;;;;;;0.70;0.70;;;;;;;;;;8192004;28;20042;-72
2023/01/04 19:47:34;;;;;;;0.50;0.50;;;;;;;;;;8217457;28;20062;-72
2023/01/04 19:51:34;;;;;;;0.60;0.60;;;;;;;;;;8217777;28;20026;-73
2023/01/04 19:55:37;;;;;;;0.50;0.50;;;;;;;;;;8217328;28;20025;-72
2023/01/04 19:59:37;;;;;;;0.60;0.60;;;;;;;;;;8217026;28;20034;-72
2023/01/04 20:03:37;;;;;;;0.60;0.60;;;;;;;;;;8214869;28;20798;-71
2023/01/04 20:07:38;;;;;;;0.60;0.60;;;;;;;;;;8219081;28;20903;-70
2023/01/04 20:11:38;;;;;;;0.50;0.50;;;;;;;;;;8227396;28;20030;-71
2023/01/04 20:15:38;;;;;;;0.63;0.63;;;;;;;;;;8216765;28;20377;-70
2023/01/04 20:19:38;;;;;;;0.60;0.60;;;;;;;;;;8216063;28;20084;-71
2023/01/04 20:23:39;;;;;;;0.82;0.40;;;;;;;;;;8194846;28;20328;-71
2023/01/04 20:27:39;;;;;;;0.50;0.50;;;;;;;;;;8190220;28;20061;-71
2023/01/04 20:31:41;;;;;;;0.50;0.50;;;;;;;;;;8199427;28;20039;-72
2023/01/04 20:35:42;;;;;;;0.50;0.50;;;;;;;;;;8211891;28;20962;-71
2023/01/04 20:39:42;;;;;;;0.77;0.60;;;;;;;;;;8216579;23;20058;-62
2023/01/04 20:43:43;;;;;;;0.70;0.70;;;;;;;;;;8197531;28;20050;-62
2023/01/04 20:47:44;;;;;;;2.25;0.80;;;;;;;;;;8194991;28;20048;-62
2023/01/04 20:51:45;;;;;;;0.82;0.82;;;;;;;;;;8204360;28;20873;-62
2023/01/04 20:55:45;;;;;;;1.15;0.90;;;;;;;;;;8214702;28;20022;-62
2023/01/04 20:59:45;;;;;;;1.40;1.20;;;;;;;;;;8218300;28;20909;-62
2023/01/04 21:03:45;;;;;;;1.95;1.38;;;;;;;;;;8217170;28;20455;-62
2023/01/04 21:07:46;;;;;;;1.88;1.42;;;;;;;;;;8205236;28;20136;-62
2023/01/04 21:11:46;;;;;;;1.15;1.10;;;;;;;;;;8218420;28;20560;-62
2023/01/04 21:15:46;;;;;;;1.20;1.10;;;;;;;;;;8263660;22;20073;-73
2023/01/04 21:19:46;;;;;;;1.73;1.40;;;;;;;;;;8199034;28;20030;-73
2023/01/04 21:23:47;;;;;;;1.63;1.30;;;;;;;;;;8204205;28;20149;-72
2023/01/04 21:27:47;;;;;;;3.97;1.30;;;;;;;;;;8195191;28;20046;-72
2023/01/04 21:31:47;;;;;;;2.67;1.60;;;;;;;;;;8194528;28;21312;-73
2023/01/04 21:35:47;;;;;;;1.40;1.30;;;;;;;;;;8201715;28;20839;-73
2023/01/04 22:17:19;;;;;;;0.73;0.73;;;;;;;;;;8189247;28;20096;-73
2023/01/04 22:21:22;;;;;;;1.30;1.00;;;;;;;;;;8198975;28;20035;-73
2023/01/04 22:25:22;;;;;;;0.80;0.80;;;;;;;;;;8181313;28;20756;-72
2023/01/04 22:29:23;;;;;;;0.82;0.82;;;;;;;;;;8182158;28;20050;-72
2023/01/04 22:33:24;;;;;;;0.73;0.70;;;;;;;;;;8184135;28;20174;-73
2023/01/04 22:37:24;;;;;;;0.60;0.60;;;;;;;;;;8162022;28;20030;-72
2023/01/04 22:41:26;;;;;;;0.77;0.70;;;;;;;;;;8193262;28;20035;-73
2023/01/04 22:45:26;;;;;;;1.60;0.70;;;;;;;;;;8195558;28;20475;-73
2023/01/04 22:49:26;;;;;;;0.55;0.55;;;;;;;;;;8199720;28;20023;-73
2023/01/04 22:53:26;;;;;;;0.50;0.50;;;;;;;;;;8203745;28;20042;-73
2023/01/04 22:57:26;;;;;;;0.93;0.57;;;;;;;;;;8189789;28;20026;-73
2023/01/04 23:01:28;;;;;;;0.50;0.50;;;;;;;;;;8194990;28;20043;-73
2023/01/04 23:05:28;;;;;;;0.60;0.60;;;;;;;;;;8204354;28;20018;-73
2023/01/04 23:09:28;;;;;;;0.50;0.50;;;;;;;;;;8205934;28;20033;-73
2023/01/04 23:13:29;;;;;;;0.40;0.40;;;;;;;;;;8202943;28;20062;-72
2023/01/04 23:17:29;;;;;;;0.88;0.68;;;;;;;;;;8189266;28;20058;-73
2023/01/04 23:21:29;;;;;;;0.50;0.50;;;;;;;;;;8203539;28;20041;-73
2023/01/04 23:25:30;;;;;;;0.50;0.50;;;;;;;;;;8204576;28;21102;-73
2023/01/04 23:29:30;;;;;;;0.70;0.70;;;;;;;;;;8201332;28;20027;-73
2023/01/04 23:33:30;;;;;;;0.70;0.70;;;;;;;;;;8202115;28;20045;-73
2023/01/04 23:42:08;;;;;;;0.60;0.60;;;;;;;;;;8179823;28;20137;-73
2023/01/04 23:46:13;;;;;;;0.68;0.68;;;;;;;;;;8202074;28;20035;-74
2023/01/04 23:50:14;;;;;;;0.75;0.70;;;;;;;;;;8197972;28;20646;-74
2023/01/04 23:54:14;;;;;;;0.50;0.50;;;;;;;;;;8203085;28;20559;-73
2023/01/04 23:58:14;;;;;;;0.50;0.50;;;;;;;;;;8198772;28;21227;-73
